Frederika, Iowa
Current Conditions -  °F | °C
As of 10:55 PM on Thursday 30 Oct 2014 (Local Time) from KCCY Reporting Station
Overcast Overcast  
Wind Chill:   Ceiling: 4000
Heat Index:   Visibility: 10mi
Dew Point:   Wind: 15mph
Humidity: 66%   Direction: 340°NNW
Pressure: 30.22"   Gusts: 23mph
Location:  42.88°N, 92.31°W
Report Text: KCCY 310355Z AUTO 34013G20KT 10SM OVC040 06/M00 A3022 RMK AO2
Loading
Personal Weather Stations






























Interactive Weather Map
Tropical Storm Tracking
New forecast layout! Learn more

10-Day Weather Forecast

Advertisements
Track Severe Weather on mobile